Time;durP1;ratioP1;P1;durP2;ratioP2;P2;SDS_P1;SDS_P2;PMS_P1;PMS_P2;Temp;Humidity;BMP_temperature;BMP_pressure;BME280_temperature;BME280_humidity;BME280_pressure;Samples;Min_cycle;Max_cycle;Signal;HPM_P1;HPM_P2
2021/11/21 00:01:40;;;;;;;83.57;42.40;;;8.80;99.90;;;;;;6152953;23;20092;-77
2021/11/21 00:04:06;;;;;;;87.30;41.58;;;8.90;99.90;;;;;;6153554;23;20010;-77
2021/11/21 00:06:32;;;;;;;81.05;40.78;;;8.80;99.90;;;;;;6151435;23;20064;-77
2021/11/21 00:08:58;;;;;;;80.30;39.88;;;8.70;99.90;;;;;;6153424;23;20088;-77
2021/11/21 00:11:23;;;;;;;85.35;42.08;;;8.70;99.90;;;;;;6127045;23;20010;-77
2021/11/21 00:13:50;;;;;;;81.35;41.45;;;8.70;99.90;;;;;;6127418;23;20013;-77
2021/11/21 00:16:17;;;;;;;71.47;38.92;;;8.70;99.90;;;;;;6152955;23;20349;-77
2021/11/21 00:18:43;;;;;;;78.35;40.05;;;8.70;99.90;;;;;;6152901;23;20012;-77
2021/11/21 00:21:08;;;;;;;73.15;38.15;;;8.70;99.90;;;;;;6153208;23;20017;-77
2021/11/21 00:23:34;;;;;;;69.43;37.03;;;8.70;99.90;;;;;;6152615;23;20080;-78
2021/11/21 00:26:00;;;;;;;70.65;38.45;;;8.80;99.90;;;;;;6153402;23;20014;-78
2021/11/21 00:28:26;;;;;;;82.18;40.17;;;8.80;99.90;;;;;;6153153;23;20085;-76
2021/11/21 00:30:52;;;;;;;81.45;39.85;;;8.70;99.90;;;;;;6126957;23;20001;-76
2021/11/21 00:33:18;;;;;;;75.18;39.78;;;8.70;99.90;;;;;;6152830;23;20009;-76
2021/11/21 00:35:44;;;;;;;69.68;36.53;;;8.70;99.90;;;;;;6153086;23;20484;-76
2021/11/21 00:38:10;;;;;;;83.53;38.88;;;8.70;99.90;;;;;;6152937;23;20012;-76
2021/11/21 00:40:36;;;;;;;69.18;35.75;;;8.70;99.90;;;;;;6126776;23;20419;-77
2021/11/21 00:43:02;;;;;;;65.93;35.50;;;8.70;99.90;;;;;;6153090;23;20001;-76
2021/11/21 00:45:29;;;;;;;64.40;33.63;;;8.60;99.90;;;;;;6153067;23;20009;-77
2021/11/21 00:47:55;;;;;;;62.70;33.03;;;8.60;99.90;;;;;;6126789;23;20005;-76
2021/11/21 00:50:27;;;;;;;60.88;32.92;;;8.60;99.90;;;;;;6153239;23;20055;-76
2021/11/21 00:53:00;;;;;;;57.33;33.13;;;8.60;99.90;;;;;;6152741;23;20479;-77
2021/11/21 00:55:52;;;;;;;74.30;33.92;;;8.50;99.90;;;;;;6154176;23;20432;-76
2021/11/21 00:58:15;;;;;;;67.20;34.70;;;8.50;99.90;;;;;;6153735;23;20011;-77
2021/11/21 01:00:47;;;;;;;74.97;36.22;;;8.50;99.90;;;;;;6154736;23;20088;-76
2021/11/21 01:03:15;;;;;;;73.47;34.90;;;8.50;99.90;;;;;;6154592;23;20025;-77
2021/11/21 01:05:42;;;;;;;68.85;35.75;;;8.50;99.90;;;;;;6155443;23;20089;-76
2021/11/21 01:08:08;;;;;;;72.78;36.67;;;8.50;99.90;;;;;;6153447;23;20333;-75
2021/11/21 01:10:34;;;;;;;72.20;34.47;;;8.50;99.90;;;;;;6128835;23;20018;-76
2021/11/21 01:13:00;;;;;;;63.58;33.35;;;8.50;99.90;;;;;;6154837;23;20008;-76
2021/11/21 01:15:26;;;;;;;67.75;33.83;;;8.60;99.90;;;;;;6154532;23;20414;-76
2021/11/21 01:17:53;;;;;;;64.35;32.45;;;8.50;99.90;;;;;;6128271;23;19997;-75
2021/11/21 01:20:22;;;;;;;59.33;31.95;;;8.50;99.90;;;;;;6154861;23;20064;-75
2021/11/21 01:22:48;;;;;;;57.85;31.02;;;8.40;99.90;;;;;;6154534;23;20008;-76
2021/11/21 01:25:14;;;;;;;61.13;31.58;;;8.40;99.90;;;;;;6154574;23;20012;-76
2021/11/21 01:27:41;;;;;;;60.50;33.40;;;8.40;99.90;;;;;;6128041;23;20001;-75
2021/11/21 01:30:11;;;;;;;55.85;30.80;;;8.40;99.90;;;;;;6154823;23;20002;-75
2021/11/21 01:32:37;;;;;;;52.50;30.38;;;8.40;99.90;;;;;;6153524;23;20372;-76
2021/11/21 01:35:04;;;;;;;53.20;30.60;;;8.40;99.90;;;;;;6128249;23;20029;-75
2021/11/21 01:37:29;;;;;;;58.80;30.38;;;8.40;99.90;;;;;;6154228;23;20009;-75
2021/11/21 01:39:55;;;;;;;65.63;32.95;;;8.30;99.90;;;;;;6154612;23;20010;-76
2021/11/21 01:42:22;;;;;;;59.65;32.10;;;8.30;99.90;;;;;;6154158;23;20017;-75
2021/11/21 01:44:48;;;;;;;55.83;31.42;;;8.30;99.90;;;;;;6154643;23;20025;-75
2021/11/21 01:47:14;;;;;;;58.15;32.35;;;8.40;99.90;;;;;;6128291;23;20433;-75
2021/11/21 01:49:40;;;;;;;60.03;33.22;;;8.40;99.90;;;;;;6154823;23;20381;-76
2021/11/21 01:52:06;;;;;;;63.85;33.58;;;8.40;99.90;;;;;;6154368;23;20488;-75
2021/11/21 01:54:33;;;;;;;56.17;32.05;;;8.50;99.90;;;;;;6154910;23;20079;-75
2021/11/21 01:57:00;;;;;;;60.83;32.22;;;8.50;99.90;;;;;;6154201;23;19997;-76
2021/11/21 01:59:26;;;;;;;57.60;32.25;;;8.50;99.90;;;;;;6154762;23;20013;-75
2021/11/21 02:01:51;;;;;;;69.45;35.00;;;8.50;99.90;;;;;;6154192;23;20076;-76
2021/11/21 02:04:17;;;;;;;68.72;34.85;;;8.50;99.90;;;;;;6154438;23;20002;-75
2021/11/21 02:06:43;;;;;;;66.82;35.22;;;8.60;99.90;;;;;;6128159;23;20015;-76
2021/11/21 02:09:09;;;;;;;61.90;33.88;;;8.60;99.90;;;;;;6128408;23;20009;-75
2021/11/21 02:11:34;;;;;;;63.85;32.20;;;8.70;99.90;;;;;;6127865;23;20017;-76
2021/11/21 02:14:01;;;;;;;52.15;28.00;;;8.70;99.90;;;;;;6154637;23;20302;-75
2021/11/21 02:16:28;;;;;;;31.15;19.90;;;8.70;99.90;;;;;;6154054;23;20102;-75
2021/11/21 02:18:54;;;;;;;33.97;19.73;;;8.80;99.90;;;;;;6154509;23;20389;-75
2021/11/21 02:21:21;;;;;;;32.13;21.05;;;8.80;99.90;;;;;;6154163;23;20001;-75
2021/11/21 02:23:47;;;;;;;38.45;23.02;;;8.80;99.90;;;;;;6152828;23;20021;-75
2021/11/21 02:26:17;;;;;;;40.88;24.83;;;8.70;99.90;;;;;;6128091;23;20086;-75
2021/11/21 02:28:44;;;;;;;41.53;24.63;;;8.70;99.90;;;;;;6154390;23;20337;-75
2021/11/21 02:31:11;;;;;;;39.75;25.30;;;8.70;99.90;;;;;;6154138;23;20006;-75
2021/11/21 02:33:38;;;;;;;49.85;26.55;;;8.70;99.90;;;;;;6128120;23;20032;-75
2021/11/21 02:36:05;;;;;;;45.50;26.20;;;8.70;99.90;;;;;;6154201;23;20040;-75
2021/11/21 02:38:33;;;;;;;43.97;25.67;;;8.70;99.90;;;;;;6154311;23;20041;-75
2021/11/21 02:41:01;;;;;;;42.75;26.83;;;8.70;99.90;;;;;;6154065;23;20060;-76
2021/11/21 02:43:27;;;;;;;42.28;25.35;;;8.70;99.90;;;;;;6128176;23;20009;-76
2021/11/21 02:45:55;;;;;;;46.53;27.15;;;8.70;99.90;;;;;;6154061;23;20478;-75
2021/11/21 02:48:23;;;;;;;47.30;27.70;;;8.70;99.90;;;;;;6153908;23;20005;-76
2021/11/21 02:50:49;;;;;;;49.20;27.30;;;8.80;99.90;;;;;;6128188;23;20006;-76
2021/11/21 02:53:16;;;;;;;57.70;30.52;;;8.80;99.90;;;;;;6127846;23;20009;-75
2021/11/21 02:55:42;;;;;;;58.35;30.48;;;8.80;99.90;;;;;;6154199;23;20045;-76
2021/11/21 02:58:08;;;;;;;58.05;30.08;;;8.90;99.90;;;;;;6154024;23;19998;-73
2021/11/21 03:00:35;;;;;;;59.72;30.55;;;8.90;99.90;;;;;;6127915;23;20010;-73
2021/11/21 03:03:01;;;;;;;58.95;30.58;;;8.90;99.90;;;;;;6153710;23;20001;-74
2021/11/21 03:05:27;;;;;;;55.28;28.88;;;8.90;99.90;;;;;;6154111;23;20088;-74
2021/11/21 03:07:53;;;;;;;61.13;30.85;;;9.00;99.90;;;;;;6153753;23;20081;-77
2021/11/21 03:10:20;;;;;;;55.45;30.02;;;9.00;99.90;;;;;;6153728;23;20643;-76
2021/11/21 03:12:48;;;;;;;50.33;27.90;;;9.00;99.90;;;;;;6153884;23;20010;-73
2021/11/21 03:15:14;;;;;;;50.38;28.85;;;9.00;99.90;;;;;;6127870;23;20088;-76
2021/11/21 03:17:43;;;;;;;56.00;29.45;;;9.00;99.90;;;;;;6153427;23;20021;-76
2021/11/21 03:20:11;;;;;;;50.03;27.83;;;9.00;99.90;;;;;;6153773;23;20334;-76
2021/11/21 03:22:37;;;;;;;50.28;28.02;;;9.00;99.90;;;;;;6152079;23;20132;-76
2021/11/21 03:25:03;;;;;;;54.55;29.90;;;9.00;99.90;;;;;;6127650;23;20453;-76
2021/11/21 03:27:29;;;;;;;53.20;29.40;;;9.00;99.90;;;;;;6127445;23;20028;-76
2021/11/21 03:29:54;;;;;;;58.88;29.92;;;9.00;99.90;;;;;;6127938;23;19997;-76
2021/11/21 03:32:20;;;;;;;54.10;29.15;;;9.00;99.90;;;;;;6153477;23;20388;-76
2021/11/21 03:34:46;;;;;;;56.00;29.35;;;9.00;99.90;;;;;;6153602;23;20024;-74
2021/11/21 03:37:12;;;;;;;58.05;29.98;;;9.00;99.90;;;;;;6153460;23;20414;-74
2021/11/21 03:39:38;;;;;;;56.47;31.77;;;9.00;99.90;;;;;;6153871;23;20010;-74
2021/11/21 03:42:05;;;;;;;54.22;28.92;;;9.00;99.90;;;;;;6127106;23;20079;-75
2021/11/21 03:44:31;;;;;;;53.08;28.85;;;9.10;99.90;;;;;;6153968;23;20002;-76
2021/11/21 03:46:57;;;;;;;58.28;31.30;;;9.10;99.90;;;;;;6153115;23;20044;-75
2021/11/21 03:49:23;;;;;;;60.63;31.95;;;9.10;99.90;;;;;;6153746;23;19997;-76
2021/11/21 03:51:49;;;;;;;67.57;33.30;;;9.10;99.90;;;;;;6153086;23;20028;-75
2021/11/21 03:54:14;;;;;;;56.20;32.85;;;9.10;99.90;;;;;;6152022;23;19998;-75
2021/11/21 03:56:40;;;;;;;58.58;30.60;;;9.10;99.90;;;;;;6127033;23;20032;-75
2021/11/21 03:59:06;;;;;;;60.80;32.08;;;9.10;99.90;;;;;;6153779;23;20005;-76
2021/11/21 04:01:32;;;;;;;57.88;30.73;;;9.20;99.90;;;;;;6153150;23;20053;-76
2021/11/21 04:03:59;;;;;;;54.83;28.40;;;9.20;99.90;;;;;;6153404;23;19997;-76
2021/11/21 04:06:25;;;;;;;51.70;27.73;;;9.20;99.90;;;;;;6153172;23;20005;-75
2021/11/21 04:08:51;;;;;;;47.17;26.85;;;9.20;99.90;;;;;;6153735;23;20091;-76
2021/11/21 04:11:16;;;;;;;45.03;27.10;;;9.10;99.90;;;;;;6127189;23;20389;-75
2021/11/21 04:13:42;;;;;;;54.05;29.70;;;9.10;99.90;;;;;;6153388;23;20059;-76
2021/11/21 04:16:08;;;;;;;48.92;29.20;;;9.10;99.90;;;;;;6153282;23;20002;-76
2021/11/21 04:18:34;;;;;;;52.63;28.95;;;9.10;99.90;;;;;;6152920;23;20055;-76
2021/11/21 04:21:00;;;;;;;57.30;29.42;;;9.10;99.90;;;;;;6153392;23;20033;-76
2021/11/21 04:23:29;;;;;;;50.55;28.38;;;9.20;99.90;;;;;;6153073;23;20017;-76
2021/11/21 04:25:57;;;;;;;51.33;29.77;;;9.20;99.90;;;;;;6153433;23;20005;-76
2021/11/21 04:28:22;;;;;;;46.67;27.70;;;9.20;99.90;;;;;;6153177;23;20003;-75
2021/11/21 04:30:48;;;;;;;54.67;30.30;;;9.20;99.90;;;;;;6152902;23;20076;-75
2021/11/21 04:33:14;;;;;;;62.63;31.58;;;9.20;99.90;;;;;;6153025;23;20387;-76
2021/11/21 04:35:39;;;;;;;59.58;33.45;;;9.20;99.90;;;;;;6153254;23;19997;-76
2021/11/21 04:38:05;;;;;;;55.25;30.98;;;9.20;99.90;;;;;;6152966;23;20014;-75
2021/11/21 04:40:31;;;;;;;62.83;31.58;;;9.20;99.90;;;;;;6153451;23;20468;-76
2021/11/21 04:42:57;;;;;;;58.47;31.85;;;9.20;99.90;;;;;;6153067;23;20336;-76
2021/11/21 04:45:22;;;;;;;56.30;30.77;;;9.20;99.90;;;;;;6153049;23;20084;-76
2021/11/21 04:47:48;;;;;;;49.42;29.85;;;9.20;99.90;;;;;;6153220;23;19997;-76
2021/11/21 04:50:15;;;;;;;55.60;32.30;;;9.20;99.90;;;;;;6153046;23;20008;-76
2021/11/21 04:52:42;;;;;;;54.67;30.30;;;9.20;99.90;;;;;;6153062;23;20001;-76
2021/11/21 04:55:08;;;;;;;56.40;31.35;;;9.20;99.90;;;;;;6153112;23;20002;-76
2021/11/21 04:57:39;;;;;;;59.95;31.52;;;9.30;99.90;;;;;;6152937;23;20002;-76
2021/11/21 05:00:06;;;;;;;56.58;30.77;;;9.30;99.90;;;;;;6151370;23;20053;-76
2021/11/21 05:02:32;;;;;;;53.17;30.88;;;9.20;99.90;;;;;;6126735;23;20005;-76
2021/11/21 05:04:57;;;;;;;52.38;30.13;;;9.20;99.90;;;;;;6126988;23;20010;-76
2021/11/21 05:07:23;;;;;;;54.90;31.33;;;9.20;99.90;;;;;;6152827;23;20008;-76
2021/11/21 05:09:48;;;;;;;57.55;31.17;;;9.20;99.90;;;;;;6153122;23;20068;-77
2021/11/21 05:12:15;;;;;;;56.40;31.05;;;9.20;99.90;;;;;;6126823;23;20186;-76
2021/11/21 05:14:41;;;;;;;60.47;31.65;;;9.20;99.90;;;;;;6153425;23;20001;-76
2021/11/21 05:17:07;;;;;;;61.40;33.40;;;9.10;99.90;;;;;;6152333;23;20008;-76
2021/11/21 05:19:32;;;;;;;58.20;31.27;;;9.10;99.90;;;;;;6153151;23;20012;-77
2021/11/21 05:21:58;;;;;;;62.42;33.08;;;9.10;99.90;;;;;;6126406;23;20579;-76
2021/11/21 05:24:24;;;;;;;50.85;31.45;;;9.10;99.90;;;;;;6153564;23;20417;-76
2021/11/21 05:26:51;;;;;;;59.10;32.03;;;9.20;99.90;;;;;;6152594;23;20001;-76
2021/11/21 05:29:18;;;;;;;64.07;32.60;;;9.20;99.90;;;;;;6153317;23;20006;-76
2021/11/21 05:31:43;;;;;;;62.95;34.47;;;9.20;99.90;;;;;;6152538;23;20044;-76
2021/11/21 05:34:09;;;;;;;64.72;35.05;;;9.20;99.90;;;;;;6152692;23;20026;-76
2021/11/21 05:36:35;;;;;;;63.63;34.63;;;9.20;99.90;;;;;;6152424;23;20421;-76
2021/11/21 05:39:01;;;;;;;67.78;34.97;;;9.10;99.90;;;;;;6152834;23;20484;-75
2021/11/21 05:41:27;;;;;;;67.35;36.03;;;9.10;99.90;;;;;;6153558;23;20001;-76
2021/11/21 05:43:52;;;;;;;63.70;35.83;;;9.10;99.90;;;;;;6154937;23;20073;-76
2021/11/21 05:46:18;;;;;;;65.95;35.88;;;9.10;99.90;;;;;;6154596;23;20012;-76
2021/11/21 05:48:44;;;;;;;67.55;36.75;;;9.10;99.90;;;;;;6154279;23;20001;-76
2021/11/21 05:51:10;;;;;;;64.07;34.95;;;9.10;99.90;;;;;;6154653;23;20337;-76
2021/11/21 05:53:35;;;;;;;71.00;35.40;;;9.10;99.90;;;;;;6154658;23;20394;-75
2021/11/21 05:56:01;;;;;;;70.53;36.40;;;9.10;99.90;;;;;;6128365;23;20005;-75
2021/11/21 05:58:27;;;;;;;74.53;35.83;;;9.10;99.90;;;;;;6154739;23;19997;-77
2021/11/21 06:00:53;;;;;;;67.60;36.60;;;9.10;99.90;;;;;;6154414;23;20409;-76
2021/11/21 06:03:19;;;;;;;70.78;38.38;;;9.20;99.90;;;;;;6154480;23;20061;-76
2021/11/21 06:05:45;;;;;;;72.03;38.25;;;9.10;99.90;;;;;;6154693;23;20461;-76
2021/11/21 06:08:10;;;;;;;75.85;37.67;;;9.20;99.90;;;;;;6154414;23;19997;-76
2021/11/21 06:10:36;;;;;;;72.25;36.42;;;9.20;99.90;;;;;;6154380;23;20445;-75
2021/11/21 06:13:02;;;;;;;61.33;34.92;;;9.20;99.90;;;;;;6154336;23;20060;-75
2021/11/21 06:15:28;;;;;;;60.05;33.35;;;9.20;99.90;;;;;;6128418;23;20005;-75
2021/11/21 06:17:54;;;;;;;63.97;33.00;;;9.20;99.90;;;;;;6153949;23;20473;-75
2021/11/21 06:20:19;;;;;;;66.00;32.75;;;9.20;99.90;;;;;;6154409;23;20611;-75
2021/11/21 06:22:45;;;;;;;62.72;33.22;;;9.20;99.90;;;;;;6154119;23;20033;-75
2021/11/21 06:25:12;;;;;;;63.95;35.08;;;9.30;99.90;;;;;;6154726;23;20496;-75
2021/11/21 06:27:38;;;;;;;60.92;32.80;;;9.30;99.90;;;;;;6154143;23;20001;-75
2021/11/21 06:30:05;;;;;;;59.13;32.72;;;9.30;99.90;;;;;;6154496;23;19998;-75
2021/11/21 06:32:31;;;;;;;57.67;34.00;;;9.30;99.90;;;;;;6153932;23;20052;-76
2021/11/21 06:34:57;;;;;;;65.90;35.03;;;9.30;99.90;;;;;;6153068;23;20009;-76
2021/11/21 06:37:22;;;;;;;67.25;33.47;;;9.40;99.90;;;;;;6154399;23;20025;-76
2021/11/21 06:39:48;;;;;;;65.13;35.58;;;9.40;99.90;;;;;;6128029;23;20033;-76
2021/11/21 06:42:14;;;;;;;65.10;34.80;;;9.40;99.90;;;;;;6153945;23;20032;-76
2021/11/21 06:44:41;;;;;;;64.72;35.42;;;9.50;99.90;;;;;;6128328;23;20426;-76
2021/11/21 06:47:07;;;;;;;70.18;35.47;;;9.50;99.90;;;;;;6152156;23;20010;-76
2021/11/21 06:49:34;;;;;;;69.32;33.83;;;9.50;99.90;;;;;;6152568;23;20012;-76
2021/11/21 06:51:59;;;;;;;69.72;35.38;;;9.50;99.90;;;;;;6127357;23;20002;-76
2021/11/21 06:54:26;;;;;;;65.85;35.40;;;9.60;99.90;;;;;;6128116;23;20443;-76
2021/11/21 06:56:52;;;;;;;69.72;35.33;;;9.70;99.90;;;;;;6127622;23;20002;-76
2021/11/21 06:59:17;;;;;;;68.10;36.50;;;9.70;99.90;;;;;;6153966;23;20059;-76
2021/11/21 07:01:43;;;;;;;65.95;36.75;;;9.70;99.90;;;;;;6153439;23;20013;-75
2021/11/21 07:04:09;;;;;;;65.72;35.72;;;9.80;99.90;;;;;;6154207;23;20005;-75
2021/11/21 07:06:39;;;;;;;65.35;35.65;;;9.80;99.90;;;;;;6153754;23;20029;-75
2021/11/21 07:09:08;;;;;;;70.90;35.40;;;9.80;99.90;;;;;;6154240;23;20012;-76
2021/11/21 07:11:34;;;;;;;64.20;36.10;;;9.90;99.90;;;;;;6153673;23;20088;-76
2021/11/21 07:14:00;;;;;;;69.47;37.03;;;9.90;99.90;;;;;;6127919;23;20005;-76
2021/11/21 07:16:26;;;;;;;70.45;36.63;;;9.90;99.90;;;;;;6153547;23;20024;-75
2021/11/21 07:18:53;;;;;;;57.20;33.97;;;9.90;99.90;;;;;;6153792;23;20002;-76
2021/11/21 07:21:19;;;;;;;68.13;34.83;;;10.00;99.90;;;;;;6153787;23;20005;-76
2021/11/21 07:23:44;;;;;;;63.25;35.35;;;10.00;99.90;;;;;;6153809;23;20025;-75
2021/11/21 07:26:10;;;;;;;62.38;35.88;;;10.00;99.90;;;;;;6153624;23;20056;-75
2021/11/21 07:28:36;;;;;;;71.68;35.05;;;10.00;99.90;;;;;;6153319;23;20460;-75
2021/11/21 07:31:03;;;;;;;62.35;34.63;;;10.10;99.90;;;;;;6153210;23;19998;-75
2021/11/21 07:33:28;;;;;;;62.83;34.20;;;10.10;99.90;;;;;;6152435;23;20382;-76
2021/11/21 07:35:55;;;;;;;68.55;35.67;;;10.20;99.90;;;;;;6125979;23;20036;-76
2021/11/21 07:38:22;;;;;;;64.72;37.08;;;10.20;99.90;;;;;;6152847;23;20097;-74
2021/11/21 07:40:49;;;;;;;62.15;34.55;;;10.20;99.90;;;;;;6153412;23;20322;-75
2021/11/21 07:43:15;;;;;;;65.35;35.38;;;10.30;99.90;;;;;;6127046;23;20009;-75
2021/11/21 07:45:41;;;;;;;65.03;34.20;;;10.30;99.90;;;;;;6153441;23;20012;-75
2021/11/21 07:48:07;;;;;;;62.88;34.08;;;10.30;99.90;;;;;;6153404;23;20076;-76
2021/11/21 07:50:34;;;;;;;58.83;33.78;;;10.40;99.90;;;;;;6152321;23;20487;-76
2021/11/21 07:53:00;;;;;;;58.90;33.47;;;10.40;99.90;;;;;;6153456;23;20341;-75
2021/11/21 07:55:26;;;;;;;66.32;33.88;;;10.50;99.90;;;;;;6127670;23;20429;-76
2021/11/21 07:57:52;;;;;;;57.78;33.60;;;10.50;99.90;;;;;;6151961;23;20636;-75
2021/11/21 08:00:18;;;;;;;63.13;37.08;;;10.60;99.90;;;;;;6153636;23;20048;-77
2021/11/21 08:02:44;;;;;;;75.28;39.28;;;10.60;99.90;;;;;;6153307;23;19994;-77
2021/11/21 08:05:10;;;;;;;61.15;35.55;;;10.60;99.90;;;;;;6151886;23;20001;-76
2021/11/21 08:07:36;;;;;;;51.80;30.92;;;10.60;99.90;;;;;;6153459;23;20002;-77
2021/11/21 08:10:03;;;;;;;45.97;27.67;;;10.70;99.90;;;;;;6153595;23;20024;-78
2021/11/21 08:12:29;;;;;;;45.67;25.08;;;10.70;99.90;;;;;;6153432;23;20005;-78
2021/11/21 08:14:55;;;;;;;52.42;29.20;;;10.70;99.90;;;;;;6154281;23;20001;-78
2021/11/21 08:17:21;;;;;;;50.28;30.30;;;10.70;99.90;;;;;;6150733;23;20647;-76
2021/11/21 08:19:46;;;;;;;40.88;22.02;;;10.70;99.90;;;;;;6150725;23;20022;-76
2021/11/21 08:22:12;;;;;;;40.83;22.67;;;10.70;99.90;;;;;;6150404;23;20328;-76
2021/11/21 08:24:38;;;;;;;35.83;22.30;;;10.70;99.90;;;;;;6151059;23;20010;-77
2021/11/21 08:27:04;;;;;;;34.78;22.02;;;10.80;99.90;;;;;;6150600;23;20009;-80
2021/11/21 08:29:30;;;;;;;34.10;18.92;;;10.80;99.90;;;;;;6148833;23;20010;-79
2021/11/21 08:31:58;;;;;;;37.42;22.52;;;10.80;99.90;;;;;;6125035;23;20101;-80
2021/11/21 08:34:24;;;;;;;40.05;21.48;;;10.80;99.90;;;;;;6151705;23;20025;-76
2021/11/21 08:36:50;;;;;;;34.15;21.35;;;10.80;99.90;;;;;;6153068;23;20056;-76
2021/11/21 08:39:18;;;;;;;33.28;20.55;;;10.90;99.90;;;;;;6153746;23;20005;-75
2021/11/21 08:41:44;;;;;;;38.60;22.67;;;10.90;99.90;;;;;;6153144;23;20016;-75
2021/11/21 08:44:10;;;;;;;39.85;21.25;;;10.90;99.90;;;;;;6127385;23;20001;-75
2021/11/21 08:46:35;;;;;;;34.30;20.48;;;11.00;99.90;;;;;;6126178;23;20140;-76
2021/11/21 08:49:01;;;;;;;33.40;20.50;;;11.00;99.90;;;;;;6125764;23;20452;-75
2021/11/21 08:51:27;;;;;;;36.53;21.65;;;11.10;99.90;;;;;;6151634;23;20477;-74
2021/11/21 08:53:53;;;;;;;34.30;21.52;;;11.10;99.90;;;;;;6153255;23;20308;-74
2021/11/21 08:56:20;;;;;;;35.45;22.17;;;11.20;99.90;;;;;;6152721;23;20811;-75
2021/11/21 08:58:46;;;;;;;31.58;20.23;;;11.30;99.90;;;;;;6126819;23;20009;-75
2021/11/21 09:01:12;;;;;;;35.15;21.98;;;11.30;99.90;;;;;;6152905;23;20099;-75
2021/11/21 09:03:39;;;;;;;33.03;21.92;;;11.40;99.90;;;;;;6126789;23;20001;-76
2021/11/21 09:06:05;;;;;;;33.30;20.70;;;11.40;99.90;;;;;;6153050;23;20006;-75
2021/11/21 09:08:31;;;;;;;37.10;21.30;;;11.50;99.90;;;;;;6152565;23;19998;-73
2021/11/21 09:10:57;;;;;;;35.75;21.40;;;11.50;99.90;;;;;;6126541;23;20408;-74
2021/11/21 09:13:23;;;;;;;33.47;20.92;;;11.60;99.90;;;;;;6153108;23;20012;-75
2021/11/21 09:15:49;;;;;;;31.67;20.80;;;11.70;99.90;;;;;;6150742;23;20001;-78
2021/11/21 09:18:15;;;;;;;35.60;21.33;;;11.70;99.90;;;;;;6154838;23;20332;-85
2021/11/21 09:20:41;;;;;;;34.22;21.05;;;11.70;99.90;;;;;;6154565;23;20471;-75
2021/11/21 09:23:13;;;;;;;35.17;22.30;;;11.70;99.90;;;;;;6154332;23;20001;-77
2021/11/21 09:25:40;;;;;;;37.50;22.02;;;11.70;99.90;;;;;;6154542;23;20425;-76
2021/11/21 09:28:05;;;;;;;37.35;22.23;;;11.70;99.90;;;;;;6154727;23;20072;-75
2021/11/21 09:30:31;;;;;;;38.45;24.02;;;11.80;99.90;;;;;;6153875;23;20429;-79
2021/11/21 09:32:57;;;;;;;38.92;24.10;;;11.80;99.90;;;;;;6153340;23;20005;-75
2021/11/21 09:35:23;;;;;;;41.83;24.70;;;11.80;99.90;;;;;;6153626;23;20006;-77
2021/11/21 09:37:50;;;;;;;38.72;24.70;;;11.80;99.90;;;;;;6127200;23;20002;-74
2021/11/21 09:40:15;;;;;;;37.30;23.33;;;11.90;99.90;;;;;;6153185;23;20009;-74
2021/11/21 09:42:43;;;;;;;41.00;25.20;;;11.90;99.90;;;;;;6153587;23;20009;-74
2021/11/21 09:45:11;;;;;;;35.53;22.63;;;11.90;99.90;;;;;;6152550;23;20006;-77
2021/11/21 09:47:37;;;;;;;38.05;23.65;;;12.00;99.90;;;;;;6152570;23;20056;-76
2021/11/21 09:50:09;;;;;;;37.55;23.55;;;12.00;99.90;;;;;;6152836;23;20001;-81
2021/11/21 09:52:35;;;;;;;39.28;24.20;;;12.00;99.90;;;;;;6126505;23;20002;-76
2021/11/21 09:55:02;;;;;;;41.97;24.92;;;12.00;99.90;;;;;;6151962;23;20340;-76
2021/11/21 09:57:29;;;;;;;44.45;25.48;;;11.90;99.90;;;;;;6153130;23;20000;-77
2021/11/21 09:59:59;;;;;;;50.35;26.73;;;12.00;99.90;;;;;;6153787;23;20014;-77
2021/11/21 10:02:31;;;;;;;47.60;27.02;;;12.00;99.90;;;;;;6127791;23;20002;-77
2021/11/21 10:05:28;;;;;;;46.35;27.67;;;12.00;99.90;;;;;;6155001;23;20012;-78
2021/11/21 10:08:03;;;;;;;67.53;42.30;;;12.10;99.90;;;;;;6153576;23;20348;-84
2021/11/21 10:10:47;;;;;;;57.38;34.22;;;12.20;99.90;;;;;;6128458;23;20026;-76
2021/11/21 10:13:36;;;;;;;52.75;35.63;;;12.30;99.90;;;;;;6154361;23;20048;-77
2021/11/21 10:16:19;;;;;;;59.25;36.33;;;12.30;99.90;;;;;;6154473;23;20002;-78
2021/11/21 10:18:50;;;;;;;49.78;30.88;;;12.40;99.90;;;;;;6128136;23;20013;-80
2021/11/21 10:21:22;;;;;;;57.40;33.33;;;12.50;99.90;;;;;;6152561;23;20010;-75
2021/11/21 10:23:47;;;;;;;58.53;34.25;;;12.50;99.90;;;;;;6154364;23;20084;-76
2021/11/21 10:26:25;;;;;;;59.90;37.00;;;12.60;99.90;;;;;;6154369;23;20063;-78
2021/11/21 10:28:52;;;;;;;58.70;35.70;;;12.60;99.90;;;;;;6154666;23;20005;-77
2021/11/21 10:31:22;;;;;;;60.67;36.28;;;12.60;99.90;;;;;;6152734;23;20068;-77
2021/11/21 10:33:52;;;;;;;51.35;30.40;;;12.60;99.90;;;;;;6153288;23;20005;-76
2021/11/21 10:36:22;;;;;;;51.00;29.80;;;12.60;99.90;;;;;;6151498;23;20500;-77
2021/11/21 10:38:54;;;;;;;52.95;32.28;;;12.70;99.90;;;;;;6153590;23;20014;-80
2021/11/21 10:41:25;;;;;;;53.83;31.38;;;12.70;99.90;;;;;;6151946;23;20091;-77
2021/11/21 10:43:59;;;;;;;63.03;36.35;;;12.70;99.90;;;;;;6154552;23;20005;-78
2021/11/21 10:46:30;;;;;;;79.78;46.95;;;12.70;99.90;;;;;;6154255;23;20002;-77
2021/11/21 13:28:40;;;;;;;84.60;47.08;;;12.30;99.90;;;;;;6196391;22;1477887;-76
2021/11/21 13:31:13;;;;;;;109.22;49.65;;;12.20;99.90;;;;;;6213934;23;20013;-76
2021/11/21 13:34:00;;;;;;;83.93;46.80;;;12.20;99.90;;;;;;6214249;23;20016;-76
2021/11/21 13:36:27;;;;;;;89.00;48.67;;;12.40;99.90;;;;;;6213710;23;20009;-75
2021/11/21 13:38:59;;;;;;;91.80;49.88;;;12.30;99.90;;;;;;6214297;23;20047;-74
2021/11/21 13:41:26;;;;;;;91.30;48.75;;;12.10;99.90;;;;;;6213757;23;20001;-75
2021/11/21 13:44:00;;;;;;;95.88;50.05;;;12.00;99.90;;;;;;6214105;23;20016;-75
2021/11/21 13:46:40;;;;;;;110.88;61.85;;;11.90;99.90;;;;;;6213536;23;20004;-77
2021/11/21 13:49:15;;;;;;;97.90;54.67;;;11.80;99.90;;;;;;6214374;23;20005;-77
2021/11/21 13:51:41;;;;;;;108.97;59.83;;;11.80;99.90;;;;;;6213746;23;20043;-77
2021/11/21 13:54:07;;;;;;;102.40;54.95;;;11.60;99.90;;;;;;6213858;23;20001;-77
2021/11/21 13:56:43;;;;;;;93.30;53.53;;;11.50;99.90;;;;;;6184590;23;20027;-82
2021/11/21 13:59:14;;;;;;;103.18;52.78;;;11.50;99.90;;;;;;6158520;23;20009;-77
2021/11/21 14:01:51;;;;;;;98.70;54.05;;;11.50;99.90;;;;;;6183779;23;20336;-82
2021/11/21 14:04:19;;;;;;;99.97;53.53;;;11.50;99.90;;;;;;6184404;23;20001;-77
2021/11/21 14:06:46;;;;;;;104.15;56.15;;;11.40;99.90;;;;;;6183360;23;20013;-77
2021/11/21 14:09:14;;;;;;;97.40;53.10;;;11.40;99.90;;;;;;6184234;23;20035;-76
2021/11/21 14:11:41;;;;;;;115.60;67.35;;;11.40;99.90;;;;;;6183547;23;20102;-77
2021/11/21 14:14:07;;;;;;;98.57;54.30;;;11.30;99.90;;;;;;6183790;23;20001;-76
2021/11/21 14:16:41;;;;;;;100.50;55.83;;;11.30;99.90;;;;;;6183505;23;20024;-75
2021/11/21 14:19:06;;;;;;;113.22;60.28;;;11.30;99.90;;;;;;6183935;23;19997;-75
2021/11/21 14:21:32;;;;;;;106.55;57.08;;;11.30;99.90;;;;;;6183378;23;20012;-77
2021/11/21 14:24:08;;;;;;;101.40;55.45;;;11.20;99.90;;;;;;6184412;23;19997;-77
2021/11/21 14:26:36;;;;;;;101.68;54.83;;;11.20;99.90;;;;;;6185532;23;20028;-89
2021/11/21 14:29:04;;;;;;;98.40;53.72;;;11.20;99.90;;;;;;6188493;23;20013;-80
2021/11/21 14:31:32;;;;;;;106.90;52.00;;;11.30;99.90;;;;;;6184723;23;20100;-80
2021/11/21 14:34:08;;;;;;;90.88;50.05;;;11.30;99.90;;;;;;6185714;23;20340;-75
2021/11/21 14:36:37;;;;;;;94.82;51.60;;;11.40;99.90;;;;;;6181871;23;20001;-76
2021/11/21 14:39:20;;;;;;;96.20;52.05;;;11.40;99.90;;;;;;6183248;23;20005;-76
2021/11/21 14:41:48;;;;;;;109.43;57.83;;;11.50;99.90;;;;;;6182012;23;20005;-75
2021/11/21 14:44:16;;;;;;;93.95;53.05;;;11.50;99.90;;;;;;6182603;23;20005;-76
2021/11/21 14:46:44;;;;;;;121.63;73.28;;;11.50;99.90;;;;;;6182004;23;20047;-77
2021/11/21 14:49:10;;;;;;;134.90;68.03;;;11.40;99.90;;;;;;6183425;23;20080;-76
2021/11/21 14:51:38;;;;;;;118.93;66.28;;;11.40;99.90;;;;;;6182543;23;20052;-79
2021/11/21 14:54:08;;;;;;;128.25;76.85;;;11.40;99.90;;;;;;6180783;23;20004;-77
2021/11/21 14:56:35;;;;;;;98.25;51.53;;;11.40;99.90;;;;;;6180455;23;20003;-78
2021/11/21 14:59:01;;;;;;;97.00;54.33;;;11.30;99.90;;;;;;6181001;23;20001;-85
2021/11/21 15:01:32;;;;;;;100.82;54.42;;;11.30;99.90;;;;;;6179266;23;20012;-78
2021/11/21 15:04:00;;;;;;;114.78;62.30;;;11.30;99.90;;;;;;6180398;23;20039;-77
2021/11/21 15:06:27;;;;;;;110.60;61.53;;;11.20;99.90;;;;;;6179573;23;20005;-76
2021/11/21 15:08:58;;;;;;;104.78;54.50;;;11.30;99.90;;;;;;6180599;23;20083;-76
2021/11/21 15:11:26;;;;;;;98.85;54.28;;;11.20;99.90;;;;;;6179949;23;20016;-75